Time;durP1;ratioP1;P1;durP2;ratioP2;P2;SDS_P1;SDS_P2;PMS_P1;PMS_P2;Temp;Humidity;BMP_temperature;BMP_pressure;BME280_temperature;BME280_humidity;BME280_pressure;Samples;Min_cycle;Max_cycle;Signal;HPM_P1;HPM_P2
2023/01/04 00:01:29;;;;;;;653.13;598.97;;;21.20;80.00;;;;;;5087018;28;20650;-44
2023/01/04 00:03:57;;;;;;;652.50;597.65;;;21.10;80.00;;;;;;5084877;28;20655;-43
2023/01/04 00:06:24;;;;;;;644.45;590.17;;;21.10;80.30;;;;;;5091048;28;20594;-43
2023/01/04 00:08:51;;;;;;;647.95;593.13;;;21.20;80.30;;;;;;5090929;28;20214;-42
2023/01/04 00:11:19;;;;;;;679.50;623.28;;;21.10;80.10;;;;;;5088549;28;20205;-43
2023/01/04 00:13:47;;;;;;;654.10;599.75;;;21.10;80.10;;;;;;5088339;28;20596;-42
2023/01/04 00:16:16;;;;;;;661.35;606.50;;;21.10;80.30;;;;;;5082556;28;20202;-41
2023/01/04 00:18:44;;;;;;;653.85;599.70;;;21.10;80.30;;;;;;5091392;28;20214;-42
2023/01/04 00:21:14;;;;;;;657.92;603.03;;;21.10;80.50;;;;;;5092793;28;20309;-43
2023/01/04 00:23:43;;;;;;;671.08;615.97;;;21.10;80.60;;;;;;5085024;28;20202;-41
2023/01/04 00:26:11;;;;;;;649.40;595.83;;;21.10;80.30;;;;;;5092043;28;20199;-42
2023/01/04 00:28:38;;;;;;;649.67;594.72;;;21.10;80.70;;;;;;5085480;28;20785;-41
2023/01/04 00:31:06;;;;;;;647.15;592.53;;;21.10;80.80;;;;;;5087679;28;20198;-42
2023/01/04 00:33:33;;;;;;;675.95;621.95;;;21.20;80.80;;;;;;5083255;28;20797;-43
2023/01/04 00:36:04;;;;;;;644.10;591.35;;;21.30;80.80;;;;;;5086547;28;20199;-47
2023/01/04 00:38:34;;;;;;;657.30;600.55;;;21.30;80.20;;;;;;5087043;28;20210;-42
2023/01/04 00:41:01;;;;;;;670.15;613.72;;;21.20;79.30;;;;;;5089247;28;20214;-43
2023/01/04 00:43:29;;;;;;;676.78;622.97;;;21.10;79.10;;;;;;5091706;28;20217;-46
2023/01/04 00:45:55;;;;;;;656.72;602.65;;;21.00;80.80;;;;;;5085811;28;20679;-41
2023/01/04 00:48:22;;;;;;;668.30;614.13;;;21.00;80.90;;;;;;5088020;28;20195;-42
2023/01/04 00:50:49;;;;;;;655.33;601.67;;;21.00;80.70;;;;;;5087869;28;20206;-42
2023/01/04 00:53:17;;;;;;;655.17;600.53;;;21.00;80.60;;;;;;5087745;28;20200;-42
2023/01/04 00:55:45;;;;;;;656.70;601.85;;;21.00;80.40;;;;;;5087016;28;20281;-41
2023/01/04 00:58:12;;;;;;;660.78;604.80;;;21.00;80.40;;;;;;5085865;28;20199;-42
2023/01/04 01:00:39;;;;;;;640.97;586.05;;;21.00;80.30;;;;;;5084442;28;20240;-42
2023/01/04 01:03:06;;;;;;;630.85;580.67;;;21.00;80.40;;;;;;5089976;28;20194;-42
2023/01/04 01:05:34;;;;;;;642.80;592.67;;;21.00;80.50;;;;;;5087299;28;20214;-42
2023/01/04 01:08:23;;;;;;;627.20;576.25;;;21.00;80.50;;;;;;5087807;28;20217;-43
2023/01/04 01:10:50;;;;;;;632.08;578.13;;;21.00;80.40;;;;;;5088092;28;20230;-41
2023/01/04 01:13:17;;;;;;;637.15;582.63;;;21.00;80.40;;;;;;5090044;28;20222;-42
2023/01/04 01:15:44;;;;;;;642.13;587.90;;;21.00;80.40;;;;;;5088080;28;20210;-41
2023/01/04 01:18:10;;;;;;;639.72;585.58;;;21.00;80.40;;;;;;5084855;28;20195;-42
2023/01/04 01:20:42;;;;;;;652.67;597.38;;;21.00;80.30;;;;;;5088914;28;20223;-42
2023/01/04 01:23:09;;;;;;;676.05;620.00;;;21.00;80.20;;;;;;5090226;28;20197;-43
2023/01/04 01:25:36;;;;;;;669.10;613.40;;;21.00;80.00;;;;;;5078062;28;20202;-42
2023/01/04 01:28:04;;;;;;;644.00;589.05;;;21.00;80.00;;;;;;5088479;28;20194;-41
2023/01/04 01:30:31;;;;;;;642.50;587.63;;;21.00;80.00;;;;;;5085172;28;20203;-43
2023/01/04 01:32:58;;;;;;;642.03;587.35;;;21.00;80.00;;;;;;5087892;28;20198;-42
2023/01/04 01:35:24;;;;;;;653.63;598.65;;;21.00;79.80;;;;;;5086226;28;20199;-43
2023/01/04 01:37:51;;;;;;;636.35;580.75;;;21.00;79.80;;;;;;5070386;28;20209;-44
2023/01/04 01:40:18;;;;;;;641.10;585.20;;;21.00;79.80;;;;;;5087934;28;20218;-42
2023/01/04 01:42:45;;;;;;;650.00;594.33;;;20.90;80.30;;;;;;5083795;28;20195;-43
2023/01/04 01:45:25;;;;;;;660.15;604.13;;;20.90;80.40;;;;;;5073564;28;20645;-43
2023/01/04 01:47:54;;;;;;;636.08;581.25;;;21.00;80.10;;;;;;5079641;28;20570;-42
2023/01/04 01:50:24;;;;;;;645.45;589.17;;;21.00;79.80;;;;;;5073495;28;20202;-41
2023/01/04 01:52:53;;;;;;;652.55;596.10;;;21.00;79.60;;;;;;5070007;28;20218;-42
2023/01/04 01:55:20;;;;;;;653.90;596.95;;;21.00;79.70;;;;;;5073557;28;20202;-42
2023/01/04 01:57:50;;;;;;;657.83;601.63;;;21.00;79.70;;;;;;5072149;28;20205;-44
2023/01/04 02:00:17;;;;;;;652.33;597.28;;;21.00;79.70;;;;;;5074335;28;20475;-42
2023/01/04 02:02:58;;;;;;;658.28;602.28;;;21.00;79.60;;;;;;5080095;28;20194;-42
2023/01/04 02:05:27;;;;;;;650.92;594.00;;;21.00;80.50;;;;;;5079839;28;20208;-41
2023/01/04 02:07:54;;;;;;;654.53;597.00;;;20.90;79.60;;;;;;5070796;28;20206;-41
2023/01/04 02:10:21;;;;;;;662.17;604.13;;;20.90;79.40;;;;;;5075768;28;20198;-41
2023/01/04 02:12:51;;;;;;;644.33;586.28;;;20.90;79.40;;;;;;5079177;28;20207;-42
2023/01/04 02:15:18;;;;;;;668.60;609.95;;;20.90;79.40;;;;;;5081209;28;20613;-43
2023/01/04 02:17:53;;;;;;;653.90;594.95;;;20.90;79.40;;;;;;5086254;28;20205;-42
2023/01/04 02:20:47;;;;;;;661.28;601.83;;;20.90;79.70;;;;;;5073973;28;20265;-45
2023/01/04 02:23:51;;;;;;;646.83;586.88;;;20.90;79.60;;;;;;5063254;28;20195;-41
2023/01/04 02:27:05;;;;;;;657.40;596.45;;;20.90;79.50;;;;;;5058584;28;20199;-42
2023/01/04 02:30:18;;;;;;;645.70;585.00;;;20.90;79.30;;;;;;5081093;28;20198;-41
2023/01/04 02:33:05;;;;;;;643.15;582.65;;;20.90;79.30;;;;;;5079960;28;20212;-42
2023/01/04 02:35:41;;;;;;;639.75;580.25;;;20.90;79.50;;;;;;5078931;28;20284;-42
2023/01/04 02:38:15;;;;;;;639.90;579.70;;;20.80;79.40;;;;;;5079500;28;20217;-44
2023/01/04 02:40:51;;;;;;;699.40;625.95;;;20.90;79.20;;;;;;5075532;28;20782;-45
2023/01/04 02:46:14;;;;;;;652.40;590.85;;;20.90;79.00;;;;;;5083925;28;20263;-42
2023/01/04 02:51:29;;;;;;;663.85;601.25;;;20.80;78.90;;;;;;5079027;28;20260;-46
2023/01/04 02:53:58;;;;;;;656.50;595.90;;;20.80;78.90;;;;;;5075768;28;20202;-42
2023/01/04 02:56:37;;;;;;;671.63;610.15;;;20.80;78.90;;;;;;5084454;28;20586;-42
2023/01/04 02:59:28;;;;;;;673.47;610.72;;;20.80;78.90;;;;;;5074302;28;20202;-45
2023/01/04 03:07:53;;;;;;;648.72;588.13;;;20.80;79.00;;;;;;5086581;28;20768;-41
2023/01/04 03:10:25;;;;;;;674.28;602.72;;;20.90;79.00;;;;;;5086295;28;20205;-42
2023/01/04 03:12:56;;;;;;;658.92;592.97;;;20.80;78.90;;;;;;5083341;28;20201;-42
2023/01/04 03:15:25;;;;;;;669.00;600.78;;;20.80;78.90;;;;;;5083952;28;20191;-45
2023/01/04 03:17:56;;;;;;;683.80;610.78;;;20.80;79.60;;;;;;5084206;28;20199;-42
2023/01/04 03:20:29;;;;;;;679.28;606.00;;;20.80;78.80;;;;;;5088073;28;20273;-44
2023/01/04 03:37:08;;;;;;;650.97;586.75;;;20.70;78.60;;;;;;5085052;28;20615;-41
2023/01/04 03:48:33;;;;;;;650.45;586.78;;;20.80;78.90;;;;;;5085253;28;20246;-42
2023/01/04 03:51:13;;;;;;;621.13;564.47;;;20.80;78.70;;;;;;5085663;28;20266;-41
2023/01/04 03:53:48;;;;;;;634.33;575.17;;;20.80;78.60;;;;;;5088776;28;20740;-42
2023/01/04 03:56:17;;;;;;;635.67;576.83;;;20.80;78.50;;;;;;5088082;28;20581;-41
2023/01/04 03:58:44;;;;;;;632.38;575.40;;;20.80;78.50;;;;;;5079686;28;20222;-43
2023/01/04 04:01:12;;;;;;;633.75;575.63;;;20.70;78.40;;;;;;5084414;28;20562;-41
2023/01/04 04:09:09;;;;;;;652.58;587.38;;;20.70;78.40;;;;;;5084754;28;20302;-41
2023/01/04 04:11:36;;;;;;;650.42;592.47;;;20.70;78.40;;;;;;5090342;28;20191;-43
2023/01/04 04:14:02;;;;;;;667.85;610.55;;;20.70;78.40;;;;;;5086128;28;20201;-42
2023/01/04 04:16:29;;;;;;;628.65;571.92;;;20.70;78.40;;;;;;5084832;28;20193;-42
2023/01/04 04:18:56;;;;;;;659.72;602.08;;;20.60;78.30;;;;;;5074382;28;20194;-42
2023/01/04 04:21:23;;;;;;;635.90;579.88;;;20.60;79.20;;;;;;5089591;28;20225;-46
2023/01/04 04:23:50;;;;;;;645.75;588.97;;;20.60;78.40;;;;;;5076816;28;20203;-42
2023/01/04 04:26:18;;;;;;;632.50;575.88;;;20.60;78.60;;;;;;5081442;28;20226;-44
2023/01/04 04:28:45;;;;;;;628.45;572.67;;;20.60;78.70;;;;;;5087110;28;20198;-41
2023/01/04 04:31:12;;;;;;;631.63;575.78;;;20.60;78.80;;;;;;5083699;28;20206;-41
2023/01/04 04:33:39;;;;;;;628.58;573.03;;;20.70;78.70;;;;;;5081571;28;20198;-42
2023/01/04 04:36:07;;;;;;;643.08;587.72;;;20.70;78.40;;;;;;5086854;28;20201;-41
2023/01/04 04:38:34;;;;;;;628.58;574.15;;;20.70;78.30;;;;;;5081271;28;20212;-42
2023/01/04 04:43:51;;;;;;;619.63;565.90;;;20.70;78.20;;;;;;5078088;28;20323;-42
2023/01/04 04:46:18;;;;;;;626.97;573.85;;;20.70;78.20;;;;;;5083476;28;20681;-41
2023/01/04 04:48:44;;;;;;;649.08;594.88;;;20.70;78.20;;;;;;5083207;28;20194;-41
2023/01/04 04:51:11;;;;;;;624.95;571.90;;;20.70;78.20;;;;;;5085842;28;20190;-42
2023/01/04 04:53:38;;;;;;;622.78;569.92;;;20.60;78.10;;;;;;5083637;28;20202;-42
2023/01/04 04:56:05;;;;;;;629.55;576.22;;;20.60;78.90;;;;;;5083577;28;20670;-41
2023/01/04 04:58:32;;;;;;;629.05;574.63;;;20.60;78.10;;;;;;5085447;28;20292;-47
2023/01/04 05:01:00;;;;;;;628.92;574.67;;;20.60;78.10;;;;;;5079202;28;20237;-41
2023/01/04 05:03:26;;;;;;;627.55;573.63;;;20.60;78.20;;;;;;5086872;28;20478;-41
2023/01/04 05:05:53;;;;;;;639.55;584.53;;;20.60;78.20;;;;;;5078421;28;20195;-41
2023/01/04 05:08:20;;;;;;;625.72;571.20;;;20.70;77.80;;;;;;5086550;28;20198;-43
2023/01/04 05:10:47;;;;;;;626.92;572.75;;;20.90;77.60;;;;;;5085860;28;20198;-41
2023/01/04 05:13:12;;;;;;;627.72;574.08;;;21.00;77.20;;;;;;5085124;28;20681;-42
2023/01/04 05:15:41;;;;;;;642.40;588.63;;;21.00;76.60;;;;;;5083129;28;20194;-41
2023/01/04 05:18:10;;;;;;;644.72;590.83;;;21.10;76.50;;;;;;5087545;28;20190;-44
2023/01/04 05:20:38;;;;;;;639.20;585.90;;;21.20;76.20;;;;;;5085666;28;20233;-42
2023/01/04 05:23:05;;;;;;;654.30;599.38;;;21.30;75.90;;;;;;5083242;28;20214;-41
2023/01/04 05:25:32;;;;;;;638.40;584.45;;;21.40;75.90;;;;;;5084349;28;20619;-42
2023/01/04 05:27:59;;;;;;;648.95;595.10;;;21.40;75.40;;;;;;5087403;28;20201;-41
2023/01/04 05:33:12;;;;;;;690.72;633.83;;;21.50;75.20;;;;;;5080784;28;20582;-43
2023/01/04 05:35:39;;;;;;;664.92;608.75;;;21.60;74.90;;;;;;5085975;28;20264;-42
2023/01/04 05:38:06;;;;;;;675.28;620.03;;;21.70;74.70;;;;;;5087919;28;20209;-45
2023/01/04 05:40:32;;;;;;;662.65;607.33;;;21.70;74.60;;;;;;5085885;28;20230;-42
2023/01/04 05:42:59;;;;;;;678.35;621.20;;;21.70;74.60;;;;;;5083917;28;20203;-43
2023/01/04 05:45:26;;;;;;;679.72;622.78;;;21.70;74.50;;;;;;5082236;28;20198;-44
2023/01/04 05:47:53;;;;;;;678.58;621.58;;;21.80;74.40;;;;;;5079181;28;20662;-42
2023/01/04 05:50:23;;;;;;;683.15;625.55;;;21.80;74.10;;;;;;5081557;28;20193;-43
2023/01/04 05:52:50;;;;;;;676.17;619.35;;;21.80;74.00;;;;;;5080116;28;20210;-42
2023/01/04 05:55:17;;;;;;;684.83;627.13;;;21.80;74.20;;;;;;5083757;28;20666;-41
2023/01/04 05:57:44;;;;;;;680.97;624.58;;;21.80;74.20;;;;;;5086647;28;20266;-41
2023/01/04 06:00:13;;;;;;;705.63;648.00;;;21.70;74.30;;;;;;5077321;28;20587;-44
2023/01/04 06:02:41;;;;;;;687.95;631.03;;;21.70;74.40;;;;;;5081368;28;20745;-41
2023/01/04 06:05:09;;;;;;;684.78;627.72;;;21.60;74.50;;;;;;5084622;28;20207;-42
2023/01/04 06:07:37;;;;;;;693.55;635.67;;;21.60;74.60;;;;;;5085010;28;20203;-47
2023/01/04 06:10:05;;;;;;;685.33;627.72;;;21.60;74.60;;;;;;5079668;28;20203;-42
2023/01/04 06:12:32;;;;;;;693.90;636.35;;;21.70;74.40;;;;;;5087558;28;20195;-41
2023/01/04 06:14:58;;;;;;;698.83;640.10;;;21.80;74.10;;;;;;5081817;28;20190;-42
2023/01/04 06:17:25;;;;;;;694.83;634.80;;;21.80;73.90;;;;;;5083117;28;20205;-42
2023/01/04 06:19:52;;;;;;;705.92;640.92;;;21.90;73.90;;;;;;5084541;28;20717;-43
2023/01/04 06:22:19;;;;;;;701.42;640.70;;;21.90;73.80;;;;;;5084344;28;20202;-42
2023/01/04 06:24:47;;;;;;;672.67;620.55;;;22.00;73.70;;;;;;5079190;28;20199;-42
2023/01/04 06:27:14;;;;;;;676.97;624.05;;;22.00;73.50;;;;;;5087167;28;20207;-42
2023/01/04 06:29:41;;;;;;;695.70;640.38;;;22.10;73.40;;;;;;5077845;28;20204;-46
2023/01/04 06:32:07;;;;;;;683.22;628.47;;;22.00;73.10;;;;;;5073481;28;20203;-42
2023/01/04 06:34:34;;;;;;;683.47;628.38;;;22.10;73.20;;;;;;5083842;28;20195;-41
2023/01/04 06:37:01;;;;;;;688.08;633.63;;;22.00;73.20;;;;;;5077384;28;20211;-43
2023/01/04 06:39:27;;;;;;;680.28;625.50;;;21.90;73.40;;;;;;5082288;28;20233;-46
2023/01/04 06:41:55;;;;;;;691.42;635.65;;;21.90;73.50;;;;;;5082208;28;20840;-42
2023/01/04 06:44:22;;;;;;;701.60;645.70;;;21.90;73.80;;;;;;5080769;28;20207;-41
2023/01/04 06:46:49;;;;;;;690.55;634.85;;;21.80;73.80;;;;;;5079743;28;20199;-44
2023/01/04 06:49:15;;;;;;;690.30;634.17;;;21.80;73.90;;;;;;5085302;28;20219;-42
2023/01/04 06:51:42;;;;;;;696.08;639.45;;;21.80;73.90;;;;;;5084936;28;20206;-42
2023/01/04 06:54:11;;;;;;;686.92;631.33;;;21.80;73.80;;;;;;5077362;28;20207;-45
2023/01/04 06:56:38;;;;;;;699.35;643.70;;;21.90;73.70;;;;;;5082626;28;20204;-46
2023/01/04 06:59:08;;;;;;;711.42;655.83;;;21.90;73.60;;;;;;5075659;28;20192;-45
2023/01/04 07:01:35;;;;;;;694.28;639.08;;;21.90;73.40;;;;;;5077262;28;20252;-45
2023/01/04 07:04:02;;;;;;;692.05;636.70;;;22.00;73.40;;;;;;5082023;28;20199;-45
2023/01/04 07:06:28;;;;;;;699.53;642.90;;;22.10;73.20;;;;;;5078467;28;20204;-45
2023/01/04 07:08:55;;;;;;;709.67;653.08;;;22.10;73.00;;;;;;5076126;28;20199;-46
2023/01/04 07:11:22;;;;;;;701.58;644.83;;;22.10;73.00;;;;;;5085103;28;20200;-45
2023/01/04 07:13:51;;;;;;;706.45;649.15;;;22.10;73.00;;;;;;5083026;28;20207;-43
2023/01/04 07:16:19;;;;;;;697.80;641.45;;;22.10;72.90;;;;;;5084374;28;20206;-46
2023/01/04 07:18:46;;;;;;;726.40;669.17;;;22.10;72.80;;;;;;5082066;28;20195;-45
2023/01/04 07:21:13;;;;;;;691.63;634.65;;;22.20;72.90;;;;;;5086730;28;20227;-45
2023/01/04 07:23:40;;;;;;;715.33;657.28;;;22.20;72.80;;;;;;5080955;28;20232;-45
2023/01/04 07:26:06;;;;;;;677.13;623.45;;;22.20;72.80;;;;;;5085384;28;20675;-45
2023/01/04 07:31:18;;;;;;;697.33;641.53;;;22.20;72.80;;;;;;5085908;28;20213;-44
2023/01/04 07:33:48;;;;;;;706.75;650.33;;;22.20;72.80;;;;;;5083542;28;20199;-44
2023/01/04 07:36:15;;;;;;;686.45;631.65;;;22.20;72.80;;;;;;5083948;28;20659;-44
2023/01/04 07:38:42;;;;;;;698.35;642.05;;;22.20;72.80;;;;;;5075207;28;20208;-44
2023/01/04 07:41:09;;;;;;;729.42;672.10;;;22.10;72.60;;;;;;5082936;28;20232;-45
2023/01/04 07:43:35;;;;;;;715.70;657.00;;;22.20;72.80;;;;;;5079547;28;20195;-44
2023/01/04 07:46:02;;;;;;;729.00;669.10;;;22.10;72.60;;;;;;5077270;28;20192;-45
2023/01/04 07:48:30;;;;;;;724.30;664.65;;;22.10;72.80;;;;;;5073300;28;20203;-45
2023/01/04 07:50:57;;;;;;;737.88;677.67;;;22.10;72.80;;;;;;5087527;28;20199;-45
2023/01/04 07:53:23;;;;;;;724.85;664.35;;;22.10;72.70;;;;;;5077109;28;20832;-46
2023/01/04 07:55:55;;;;;;;716.53;656.13;;;22.10;72.70;;;;;;5081909;28;20207;-45
2023/01/04 07:58:22;;;;;;;725.85;666.33;;;22.10;72.70;;;;;;5082885;28;20273;-46
2023/01/04 08:00:49;;;;;;;718.95;660.13;;;22.10;72.70;;;;;;5080996;28;20241;-45
2023/01/04 08:03:15;;;;;;;698.90;641.25;;;22.10;72.80;;;;;;5084068;28;20195;-46
2023/01/04 08:05:43;;;;;;;704.80;645.75;;;22.10;72.70;;;;;;5076765;28;20200;-45
2023/01/04 08:08:10;;;;;;;719.85;660.08;;;22.10;72.60;;;;;;5086499;28;20196;-47
2023/01/04 08:10:37;;;;;;;722.30;661.45;;;22.10;72.70;;;;;;5085568;28;20195;-45
2023/01/04 08:13:03;;;;;;;733.47;669.90;;;22.10;72.60;;;;;;5081713;28;20202;-45
2023/01/04 08:15:30;;;;;;;760.33;687.35;;;22.10;72.60;;;;;;5078167;28;20415;-47
2023/01/04 08:17:57;;;;;;;708.65;649.05;;;22.20;72.60;;;;;;5081582;28;20206;-45
2023/01/04 08:20:24;;;;;;;714.85;656.33;;;22.20;72.60;;;;;;5088766;28;20262;-49
2023/01/04 08:22:52;;;;;;;695.15;637.60;;;22.10;72.50;;;;;;5088836;28;20198;-46
2023/01/04 08:25:18;;;;;;;701.03;647.22;;;22.10;72.50;;;;;;5081638;28;20199;-45
2023/01/04 08:27:45;;;;;;;694.97;642.40;;;22.10;72.50;;;;;;5087910;28;20192;-44
2023/01/04 08:30:12;;;;;;;697.88;644.78;;;22.20;72.50;;;;;;5082526;28;20201;-45
2023/01/04 08:32:39;;;;;;;702.70;649.72;;;22.20;72.40;;;;;;5085893;28;20647;-45
2023/01/04 08:35:07;;;;;;;689.45;636.85;;;22.20;72.50;;;;;;5083475;28;20198;-45
2023/01/04 08:37:34;;;;;;;711.97;658.55;;;22.20;72.50;;;;;;5088299;28;20336;-46
2023/01/04 08:40:02;;;;;;;715.40;661.55;;;22.20;72.50;;;;;;5073832;28;20576;-45
2023/01/04 08:42:29;;;;;;;702.53;647.38;;;22.20;72.50;;;;;;5081835;28;20222;-47
2023/01/04 08:44:57;;;;;;;718.53;662.88;;;22.20;72.40;;;;;;5077161;28;20195;-47
2023/01/04 08:47:23;;;;;;;712.00;655.50;;;22.20;72.40;;;;;;5084904;28;20207;-45
2023/01/04 08:49:50;;;;;;;703.85;648.60;;;22.20;72.40;;;;;;5086407;28;20202;-49
2023/01/04 08:52:17;;;;;;;725.90;669.78;;;22.20;72.40;;;;;;5086730;28;20807;-46
2023/01/04 08:54:43;;;;;;;719.28;663.10;;;22.20;72.40;;;;;;5079625;28;20877;-44
2023/01/04 08:57:11;;;;;;;737.88;681.28;;;22.20;72.40;;;;;;5086835;28;20214;-45
2023/01/04 08:59:38;;;;;;;729.80;672.88;;;22.20;72.40;;;;;;5077088;28;20206;-45
2023/01/04 09:02:19;;;;;;;720.70;665.20;;;22.20;72.40;;;;;;5078744;28;20211;-44
2023/01/04 09:04:45;;;;;;;709.08;653.80;;;22.10;72.30;;;;;;5084432;28;20276;-45
2023/01/04 09:07:12;;;;;;;697.05;641.80;;;22.10;72.30;;;;;;5081154;28;20198;-45
2023/01/04 09:09:39;;;;;;;703.45;648.33;;;22.10;72.30;;;;;;5076782;28;20686;-43
2023/01/04 09:12:06;;;;;;;707.55;651.15;;;22.10;72.30;;;;;;5081801;28;20191;-44
2023/01/04 09:14:34;;;;;;;681.60;626.53;;;22.20;73.10;;;;;;5089727;28;20208;-43
2023/01/04 09:17:01;;;;;;;701.65;646.10;;;22.00;73.00;;;;;;5089902;28;20269;-44
2023/01/04 09:19:27;;;;;;;696.92;641.08;;;22.10;73.00;;;;;;5088100;28;20590;-46
2023/01/04 09:21:54;;;;;;;698.13;642.47;;;22.10;73.10;;;;;;5088441;28;20590;-44
2023/01/04 09:24:21;;;;;;;691.28;635.10;;;22.10;73.20;;;;;;5087149;28;20206;-45
2023/01/04 09:26:47;;;;;;;718.03;661.55;;;22.20;73.30;;;;;;5087440;28;20215;-45
2023/01/04 09:29:14;;;;;;;706.40;649.60;;;22.20;73.40;;;;;;5085369;28;20725;-45
2023/01/04 09:31:42;;;;;;;685.40;631.15;;;22.20;73.50;;;;;;5085691;28;20201;-44
2023/01/04 09:34:11;;;;;;;701.80;646.00;;;22.10;73.30;;;;;;5084214;28;20199;-45
2023/01/04 09:36:38;;;;;;;699.38;643.63;;;22.10;73.40;;;;;;5079399;28;20195;-45
2023/01/04 09:39:05;;;;;;;694.97;638.63;;;22.00;73.80;;;;;;5091070;28;20199;-44
2023/01/04 09:41:36;;;;;;;711.92;655.03;;;22.00;73.40;;;;;;5084210;28;20220;-44
2023/01/04 09:44:11;;;;;;;700.13;643.78;;;22.00;73.10;;;;;;5081851;28;20210;-45
2023/01/04 09:46:43;;;;;;;698.47;641.80;;;22.00;73.00;;;;;;5075730;28;20192;-43
2023/01/04 09:49:17;;;;;;;698.13;641.33;;;21.90;73.10;;;;;;5076117;28;20207;-45
2023/01/04 09:51:53;;;;;;;721.15;663.20;;;21.90;73.30;;;;;;5071473;28;20200;-44
2023/01/04 09:54:22;;;;;;;688.97;632.75;;;21.80;73.20;;;;;;5071958;28;20202;-45
2023/01/04 09:56:51;;;;;;;696.00;639.83;;;21.80;73.40;;;;;;5072553;28;20207;-45
2023/01/04 09:59:30;;;;;;;681.42;626.97;;;21.80;73.40;;;;;;5076781;28;20199;-47
2023/01/04 10:02:03;;;;;;;681.05;626.15;;;21.80;73.30;;;;;;5072830;28;20604;-44
2023/01/04 10:04:41;;;;;;;696.45;641.30;;;21.90;73.10;;;;;;5078298;28;21650;-44
2023/01/04 10:07:16;;;;;;;697.53;642.40;;;22.00;72.90;;;;;;5080146;28;20567;-46
2023/01/04 10:09:43;;;;;;;678.53;623.88;;;22.10;72.50;;;;;;5087608;28;20201;-44
2023/01/04 10:12:21;;;;;;;692.17;637.33;;;22.10;72.30;;;;;;5087622;28;20195;-43
2023/01/04 10:14:59;;;;;;;686.58;631.78;;;22.20;72.30;;;;;;5082589;28;20214;-45
2023/01/04 10:17:38;;;;;;;685.95;631.42;;;22.20;71.90;;;;;;5077620;28;20194;-44
2023/01/04 10:20:44;;;;;;;688.58;633.58;;;22.30;71.70;;;;;;5084352;28;20222;-45
2023/01/04 10:23:18;;;;;;;677.83;622.55;;;22.30;71.60;;;;;;5075125;28;20563;-47
2023/01/04 10:25:51;;;;;;;703.15;647.20;;;22.30;71.40;;;;;;5084878;28;20615;-44
2023/01/04 10:28:31;;;;;;;692.30;636.35;;;22.30;71.40;;;;;;5079808;28;20625;-44
2023/01/04 10:31:05;;;;;;;695.28;639.05;;;22.30;71.40;;;;;;5071546;28;20678;-44
2023/01/04 10:33:40;;;;;;;686.40;631.30;;;22.30;71.20;;;;;;5069986;28;20222;-44
2023/01/04 10:36:17;;;;;;;698.25;642.25;;;22.30;71.20;;;;;;5077956;28;20200;-43
2023/01/04 10:38:44;;;;;;;688.75;632.72;;;22.10;71.90;;;;;;5085195;28;20195;-44
2023/01/04 10:41:17;;;;;;;706.78;650.08;;;22.10;72.50;;;;;;5084205;28;20231;-43
2023/01/04 10:43:49;;;;;;;699.50;643.45;;;22.00;73.70;;;;;;5086889;28;20651;-44
2023/01/04 10:46:21;;;;;;;704.25;648.00;;;22.00;74.40;;;;;;5086449;28;20203;-43
2023/01/04 10:48:54;;;;;;;687.92;634.10;;;22.00;74.80;;;;;;5081886;28;20204;-43
2023/01/04 10:51:30;;;;;;;683.63;631.20;;;22.00;74.90;;;;;;5081804;28;20202;-50
2023/01/04 10:54:01;;;;;;;692.78;640.17;;;22.10;74.90;;;;;;5088849;28;20202;-47
2023/01/04 10:56:33;;;;;;;689.75;634.90;;;22.40;74.20;;;;;;5086119;28;20230;-48
2023/01/04 10:59:09;;;;;;;691.45;635.75;;;22.70;73.20;;;;;;5080386;28;20210;-48
2023/01/04 11:01:41;;;;;;;688.88;633.03;;;23.00;71.80;;;;;;5080399;28;20222;-47
2023/01/04 11:04:13;;;;;;;703.10;646.90;;;23.00;71.90;;;;;;5086355;28;20208;-47
2023/01/04 11:06:48;;;;;;;684.78;629.03;;;23.20;71.00;;;;;;5086765;28;20202;-46
2023/01/04 11:09:19;;;;;;;677.97;623.13;;;23.30;70.60;;;;;;5089816;28;20205;-48
2023/01/04 11:11:46;;;;;;;703.85;648.70;;;23.30;70.30;;;;;;5086991;28;20199;-48
2023/01/04 11:14:15;;;;;;;699.22;644.05;;;23.30;71.10;;;;;;5083538;28;20196;-48
2023/01/04 11:16:46;;;;;;;680.30;626.13;;;23.20;71.20;;;;;;5084074;28;20206;-47
2023/01/04 11:19:13;;;;;;;667.63;613.80;;;23.20;71.60;;;;;;5077210;28;20216;-45
2023/01/04 11:21:46;;;;;;;706.95;651.33;;;23.20;71.80;;;;;;5077539;28;20216;-45
2023/01/04 11:24:14;;;;;;;672.45;618.38;;;23.10;71.80;;;;;;5085670;28;20206;-51
2023/01/04 11:26:44;;;;;;;683.28;629.47;;;23.10;71.90;;;;;;5083521;28;20201;-47
2023/01/04 11:29:22;;;;;;;706.28;651.33;;;23.10;71.90;;;;;;5082202;28;20198;-48
2023/01/04 11:31:53;;;;;;;684.92;630.25;;;23.10;71.90;;;;;;5082618;28;20203;-45
2023/01/04 11:34:20;;;;;;;679.13;625.28;;;23.10;72.10;;;;;;5077326;28;20206;-47
2023/01/04 11:36:48;;;;;;;695.88;641.03;;;23.10;72.30;;;;;;5076946;28;20667;-46
2023/01/04 11:39:20;;;;;;;678.75;623.92;;;23.10;72.30;;;;;;5079960;28;20238;-44
2023/01/04 11:41:57;;;;;;;688.50;632.92;;;23.10;72.20;;;;;;5076450;28;20222;-46
2023/01/04 11:44:25;;;;;;;696.08;640.15;;;23.10;72.40;;;;;;5081246;28;20202;-53
2023/01/04 11:47:07;;;;;;;699.03;643.35;;;23.00;72.50;;;;;;5080808;28;20236;-49
2023/01/04 11:49:35;;;;;;;696.15;639.65;;;23.20;72.50;;;;;;5076077;28;20199;-47
2023/01/04 11:52:07;;;;;;;700.75;644.55;;;23.10;72.00;;;;;;5081589;28;20189;-49
2023/01/04 11:54:34;;;;;;;690.40;634.15;;;23.10;71.90;;;;;;5088043;28;20202;-48
2023/01/04 11:57:02;;;;;;;699.30;642.88;;;23.20;71.40;;;;;;5091604;28;20199;-47
2023/01/04 11:59:29;;;;;;;722.88;665.97;;;23.20;71.30;;;;;;5088148;28;20283;-48
2023/01/04 12:02:20;;;;;;;747.92;690.10;;;23.20;71.30;;;;;;5089187;28;20215;-48
2023/01/04 12:04:47;;;;;;;698.53;641.72;;;23.10;71.60;;;;;;5085841;28;20760;-50
2023/01/04 12:07:27;;;;;;;702.65;645.50;;;23.20;71.20;;;;;;5091138;28;20205;-49
2023/01/04 12:09:54;;;;;;;706.63;650.05;;;23.20;71.20;;;;;;5087106;28;20203;-48
2023/01/04 12:12:21;;;;;;;707.22;649.13;;;23.20;71.00;;;;;;5088849;28;20192;-49
2023/01/04 12:14:49;;;;;;;701.33;643.38;;;23.20;71.00;;;;;;5089381;28;20203;-46
2023/01/04 12:17:22;;;;;;;704.88;647.25;;;23.20;70.90;;;;;;5088484;28;20198;-48
2023/01/04 12:19:53;;;;;;;695.80;637.70;;;23.20;70.90;;;;;;5090730;28;20300;-47
2023/01/04 12:22:25;;;;;;;701.85;643.50;;;23.20;70.80;;;;;;5091460;28;20619;-48
2023/01/04 12:24:53;;;;;;;705.33;650.03;;;23.20;70.60;;;;;;5089568;28;20230;-47
2023/01/04 12:27:20;;;;;;;689.45;633.22;;;23.20;70.60;;;;;;5092134;28;20221;-47
2023/01/04 12:29:57;;;;;;;717.83;660.40;;;23.10;70.60;;;;;;5092153;28;20211;-48
2023/01/04 12:32:43;;;;;;;715.97;658.83;;;23.10;70.70;;;;;;5082502;28;20202;-47
2023/01/04 12:35:59;;;;;;;701.55;644.58;;;23.10;70.70;;;;;;5088721;28;20195;-45
2023/01/04 12:39:14;;;;;;;691.65;634.17;;;22.70;71.40;;;;;;5081032;28;20207;-46
2023/01/04 12:42:16;;;;;;;689.75;632.30;;;22.50;72.50;;;;;;5028987;28;20201;-46
2023/01/04 12:45:18;;;;;;;693.38;636.30;;;22.40;73.10;;;;;;5077361;28;20204;-45
2023/01/04 12:50:31;;;;;;;714.85;656.22;;;22.30;73.40;;;;;;5080877;28;20221;-50
2023/01/04 12:53:02;;;;;;;726.40;668.42;;;22.30;73.90;;;;;;5091605;28;20202;-51
2023/01/04 12:55:53;;;;;;;704.97;647.65;;;22.80;72.90;;;;;;5088511;28;20197;-49
2023/01/04 12:58:39;;;;;;;704.90;646.88;;;23.10;72.00;;;;;;5091679;28;20203;-54
2023/01/04 13:01:23;;;;;;;694.15;636.65;;;23.30;71.40;;;;;;5086809;28;20196;-51
2023/01/04 13:03:56;;;;;;;704.97;646.67;;;23.40;71.10;;;;;;5087557;28;20247;-49
2023/01/04 13:06:24;;;;;;;700.17;642.05;;;23.60;70.70;;;;;;5090739;28;20203;-48
2023/01/04 13:12:25;;;;;;;711.90;653.95;;;23.70;70.30;;;;;;5078947;28;20218;-48
2023/01/04 13:14:58;;;;;;;708.05;649.65;;;23.70;70.20;;;;;;5086729;28;20196;-49
2023/01/04 13:17:27;;;;;;;711.60;653.15;;;23.80;70.10;;;;;;5086664;28;20200;-50
2023/01/04 13:19:54;;;;;;;743.28;683.42;;;23.90;69.80;;;;;;5083523;28;20386;-50